Time;durP1;ratioP1;P1;durP2;ratioP2;P2;SDS_P1;SDS_P2;PMS_P1;PMS_P2;Temp;Humidity;BMP_temperature;BMP_pressure;BME280_temperature;BME280_humidity;BME280_pressure;Samples;Min_cycle;Max_cycle;Signal;HPM_P1;HPM_P2
2021/10/11 00:01:08;;;;;;;35.2;28.8;;;;;;;13.5;77.3;102360;;;;
2021/10/11 00:03:08;;;;;;;35.2;28.8;;;;;;;13.4;78.8;102350;;;;
2021/10/11 00:19:08;;;;;;;21.2;16.9;;;;;;;13.3;77.8;102370;;;;
2021/10/11 00:23:10;;;;;;;21.2;16.9;;;;;;;13.4;78.0;102370;;;;
2021/10/11 00:29:08;;;;;;;15.3;12.1;;;;;;;13.3;78.3;102370;;;;
2021/10/11 00:35:08;;;;;;;15.3;12.1;;;;;;;13.2;78.1;102380;;;;
2021/10/11 00:55:08;;;;;;;14.6;10.9;;;;;;;13.1;79.9;102380;;;;
2021/10/11 00:59:08;;;;;;;14.6;10.9;;;;;;;13.2;78.8;102370;;;;
2021/10/11 01:07:08;;;;;;;17.1;11.3;;;;;;;13.1;78.7;102370;;;;
2021/10/11 01:09:08;;;;;;;17.1;11.3;;;;;;;13.0;79.6;102370;;;;
2021/10/11 01:11:08;;;;;;;17.1;11.3;;;;;;;12.9;80.0;102360;;;;
2021/10/11 01:13:08;;;;;;;17.1;11.3;;;;;;;13.0;79.0;102360;;;;
2021/10/11 01:15:08;;;;;;;17.1;11.3;;;;;;;12.9;78.9;102360;;;;
2021/10/11 01:17:08;;;;;;;17.1;11.3;;;;;;;13.0;78.5;102360;;;;
2021/10/11 01:19:08;;;;;;;17.1;11.3;;;;;;;12.9;78.6;102360;;;;
2021/10/11 01:25:08;;;;;;;11.6;9.3;;;;;;;12.8;78.9;102360;;;;
2021/10/11 01:31:08;;;;;;;11.6;9.3;;;;;;;12.7;78.0;102370;;;;
2021/10/11 01:33:09;;;;;;;11.6;9.3;;;;;;;12.8;77.6;102360;;;;
2021/10/11 01:35:08;;;;;;;11.6;9.3;;;;;;;12.7;78.7;102360;;;;
2021/10/11 01:37:08;;;;;;;11.6;9.3;;;;;;;12.6;78.0;102360;;;;
2021/10/11 01:49:08;;;;;;;10.8;7.3;;;;;;;12.5;78.9;102350;;;;
2021/10/11 01:51:08;;;;;;;10.8;7.3;;;;;;;12.6;78.2;102360;;;;
2021/10/11 02:05:08;;;;;;;9.3;5.6;;;;;;;12.7;77.6;102360;;;;
2021/10/11 02:35:08;;;;;;;10.0;5.6;;;;;;;12.6;78.9;102370;;;;
2021/10/11 02:41:08;;;;;;;10.0;5.6;;;;;;;12.7;79.0;102360;;;;
2021/10/11 02:49:08;;;;;;;9.8;5.5;;;;;;;12.6;78.9;102370;;;;
2021/10/11 02:51:08;;;;;;;9.8;5.5;;;;;;;12.7;79.5;102380;;;;
2021/10/11 02:53:08;;;;;;;9.8;5.5;;;;;;;12.8;78.1;102380;;;;
2021/10/11 02:57:08;;;;;;;9.8;5.5;;;;;;;12.7;78.4;102380;;;;
2021/10/11 02:59:08;;;;;;;9.8;5.5;;;;;;;12.6;79.2;102380;;;;
2021/10/11 03:01:08;;;;;;;9.8;5.5;;;;;;;12.7;78.1;102380;;;;
2021/10/11 03:03:08;;;;;;;9.8;5.5;;;;;;;12.6;78.8;102380;;;;
2021/10/11 03:19:08;;;;;;;11.2;5.4;;;;;;;12.5;78.8;102370;;;;
2021/10/11 03:21:08;;;;;;;11.2;5.4;;;;;;;12.6;78.2;102370;;;;
2021/10/11 03:27:08;;;;;;;8.3;5.0;;;;;;;12.5;77.9;102350;;;;
2021/10/11 03:29:08;;;;;;;8.3;5.0;;;;;;;12.7;78.0;102350;;;;
2021/10/11 03:31:08;;;;;;;8.3;5.0;;;;;;;12.5;77.7;102350;;;;
2021/10/11 03:33:08;;;;;;;8.3;5.0;;;;;;;12.4;77.3;102340;;;;
2021/10/11 03:41:08;;;;;;;8.3;5.0;;;;;;;12.2;78.1;102350;;;;
2021/10/11 03:51:08;;;;;;;10.2;4.9;;;;;;;12.1;77.4;102360;;;;
2021/10/11 03:57:08;;;;;;;10.2;4.9;;;;;;;12.0;78.4;102350;;;;
2021/10/11 04:05:08;;;;;;;9.6;5.1;;;;;;;11.9;77.1;102360;;;;
2021/10/11 04:09:08;;;;;;;9.6;5.1;;;;;;;11.8;77.4;102360;;;;
2021/10/11 04:19:08;;;;;;;9.6;5.1;;;;;;;11.7;76.9;102370;;;;
2021/10/11 04:21:08;;;;;;;9.6;5.1;;;;;;;11.8;76.6;102370;;;;
2021/10/11 04:23:08;;;;;;;10.9;6.1;;;;;;;11.7;76.5;102370;;;;
2021/10/11 04:25:08;;;;;;;10.9;6.1;;;;;;;11.6;77.1;102370;;;;
2021/10/11 04:31:08;;;;;;;10.9;6.1;;;;;;;11.5;76.7;102370;;;;
2021/10/11 04:33:08;;;;;;;10.9;6.1;;;;;;;11.6;76.4;102370;;;;
2021/10/11 04:35:08;;;;;;;10.9;6.1;;;;;;;11.5;76.6;102370;;;;
2021/10/11 04:37:08;;;;;;;10.9;6.1;;;;;;;11.4;76.9;102370;;;;
2021/10/11 04:45:08;;;;;;;10.3;5.5;;;;;;;11.3;76.4;102370;;;;
2021/10/11 04:51:08;;;;;;;10.3;5.5;;;;;;;11.2;76.1;102370;;;;
2021/10/11 04:55:08;;;;;;;10.3;5.5;;;;;;;11.3;76.3;102370;;;;
2021/10/11 04:57:08;;;;;;;10.3;5.5;;;;;;;11.2;76.6;102370;;;;
2021/10/11 04:59:08;;;;;;;10.3;5.5;;;;;;;11.1;76.5;102370;;;;
2021/10/11 05:05:08;;;;;;;10.9;5.6;;;;;;;11.0;76.2;102370;;;;
2021/10/11 05:07:08;;;;;;;10.9;5.6;;;;;;;11.1;76.2;102380;;;;
2021/10/11 05:11:08;;;;;;;10.9;5.6;;;;;;;11.0;76.2;102370;;;;
2021/10/11 05:13:08;;;;;;;10.9;5.6;;;;;;;10.9;76.4;102370;;;;
2021/10/11 05:25:08;;;;;;;12.3;6.0;;;;;;;10.8;76.5;102370;;;;
2021/10/11 05:29:08;;;;;;;12.3;6.0;;;;;;;10.7;76.7;102360;;;;
2021/10/11 05:41:08;;;;;;;12.3;6.0;;;;;;;10.6;75.8;102360;;;;
2021/10/11 05:45:08;;;;;;;9.9;6.1;;;;;;;10.5;76.6;102360;;;;
2021/10/11 05:51:08;;;;;;;9.9;6.1;;;;;;;10.4;76.8;102370;;;;
2021/10/11 05:53:08;;;;;;;9.9;6.1;;;;;;;10.5;76.7;102370;;;;
2021/10/11 05:55:08;;;;;;;9.9;6.1;;;;;;;10.4;76.9;102370;;;;
2021/10/11 06:07:08;;;;;;;13.8;8.6;;;;;;;10.3;77.9;102390;;;;
2021/10/11 06:11:08;;;;;;;13.8;8.6;;;;;;;10.4;77.4;102390;;;;
2021/10/11 06:15:08;;;;;;;13.8;8.6;;;;;;;10.3;77.9;102390;;;;
2021/10/11 06:17:08;;;;;;;13.8;8.6;;;;;;;10.4;77.8;102390;;;;
2021/10/11 06:25:08;;;;;;;14.4;7.3;;;;;;;10.5;77.5;102390;;;;
2021/10/11 06:29:08;;;;;;;14.4;7.3;;;;;;;10.4;78.5;102390;;;;
2021/10/11 06:31:08;;;;;;;14.4;7.3;;;;;;;10.5;78.0;102390;;;;
2021/10/11 06:35:08;;;;;;;14.4;7.3;;;;;;;10.6;77.5;102390;;;;
2021/10/11 06:55:08;;;;;;;12.0;7.0;;;;;;;10.7;78.7;102410;;;;
2021/10/11 07:03:08;;;;;;;11.3;6.2;;;;;;;10.8;78.4;102410;;;;
2021/10/11 07:05:09;;;;;;;11.3;6.2;;;;;;;10.7;78.9;102410;;;;
2021/10/11 07:07:08;;;;;;;11.3;6.2;;;;;;;10.8;78.9;102410;;;;
2021/10/11 07:09:08;;;;;;;11.3;6.2;;;;;;;10.9;78.6;102410;;;;
2021/10/11 07:17:08;;;;;;;11.3;6.2;;;;;;;11.0;78.6;102410;;;;
2021/10/11 07:21:08;;;;;;;11.3;6.2;;;;;;;11.1;78.4;102410;;;;
2021/10/11 07:31:08;;;;;;;11.7;5.9;;;;;;;11.2;78.8;102420;;;;
2021/10/11 07:35:18;;;;;;;11.7;5.9;;;;;;;11.3;78.6;102420;;;;
2021/10/11 07:39:08;;;;;;;11.7;5.9;;;;;;;11.4;77.9;102440;;;;
2021/10/11 07:41:08;;;;;;;11.7;5.9;;;;;;;11.5;77.9;102450;;;;
2021/10/11 07:45:08;;;;;;;10.8;5.2;;;;;;;11.6;78.3;102450;;;;
2021/10/11 07:57:08;;;;;;;10.8;5.2;;;;;;;11.7;77.3;102460;;;;
2021/10/11 07:59:08;;;;;;;10.8;5.2;;;;;;;11.6;77.9;102460;;;;
2021/10/11 08:03:08;;;;;;;9.8;5.0;;;;;;;11.7;77.8;102460;;;;
2021/10/11 08:07:08;;;;;;;9.8;5.0;;;;;;;11.8;78.0;102460;;;;
2021/10/11 08:17:08;;;;;;;9.8;5.0;;;;;;;11.9;77.1;102470;;;;
2021/10/11 08:25:08;;;;;;;9.1;4.4;;;;;;;11.8;78.2;102470;;;;
2021/10/11 08:27:08;;;;;;;9.1;4.4;;;;;;;11.9;77.7;102470;;;;
2021/10/11 08:31:09;;;;;;;9.1;4.4;;;;;;;12.0;77.8;102470;;;;
2021/10/11 08:35:08;;;;;;;9.1;4.4;;;;;;;12.1;77.9;102470;;;;
2021/10/11 08:41:08;;;;;;;9.1;4.4;;;;;;;12.2;77.8;102480;;;;
2021/10/11 08:47:08;;;;;;;12.0;4.7;;;;;;;12.3;78.2;102480;;;;
2021/10/11 08:51:08;;;;;;;12.0;4.7;;;;;;;12.4;79.0;102480;;;;
2021/10/11 08:55:08;;;;;;;12.0;4.7;;;;;;;12.5;78.3;102480;;;;
2021/10/11 08:59:08;;;;;;;12.0;4.7;;;;;;;12.6;77.7;102470;;;;
2021/10/11 09:01:09;;;;;;;12.0;4.7;;;;;;;12.7;77.9;102470;;;;
2021/10/11 09:05:08;;;;;;;7.9;4.4;;;;;;;12.8;77.5;102470;;;;
2021/10/11 09:09:08;;;;;;;7.9;4.4;;;;;;;12.9;77.8;102470;;;;
2021/10/11 09:11:08;;;;;;;7.9;4.4;;;;;;;13.0;76.7;102470;;;;
2021/10/11 09:15:08;;;;;;;7.9;4.4;;;;;;;13.2;76.6;102470;;;;
2021/10/11 09:17:08;;;;;;;7.9;4.4;;;;;;;13.1;76.4;102470;;;;
2021/10/11 09:19:08;;;;;;;7.9;4.4;;;;;;;13.2;76.5;102470;;;;
2021/10/11 09:21:08;;;;;;;7.9;4.4;;;;;;;13.1;76.3;102470;;;;
2021/10/11 09:27:08;;;;;;;8.7;4.0;;;;;;;13.2;76.2;102470;;;;
2021/10/11 09:37:08;;;;;;;8.7;4.0;;;;;;;13.3;75.6;102480;;;;
2021/10/11 09:41:08;;;;;;;8.7;4.0;;;;;;;13.4;75.9;102470;;;;
2021/10/11 09:45:08;;;;;;;8.9;4.0;;;;;;;13.2;75.6;102480;;;;
2021/10/11 09:47:09;;;;;;;8.9;4.0;;;;;;;13.3;75.5;102470;;;;
2021/10/11 09:49:08;;;;;;;8.9;4.0;;;;;;;13.2;75.4;102480;;;;
2021/10/11 09:51:08;;;;;;;8.9;4.0;;;;;;;13.3;75.7;102480;;;;
2021/10/11 09:53:09;;;;;;;8.9;4.0;;;;;;;13.4;75.1;102480;;;;
2021/10/11 09:55:08;;;;;;;8.9;4.0;;;;;;;13.3;76.0;102480;;;;
2021/10/11 09:59:08;;;;;;;8.9;4.0;;;;;;;13.4;75.9;102480;;;;
2021/10/11 10:01:08;;;;;;;8.9;4.0;;;;;;;13.3;76.1;102480;;;;
2021/10/11 10:03:12;;;;;;;10.6;4.3;;;;;;;13.4;76.3;102480;;;;
2021/10/11 10:07:08;;;;;;;10.6;4.3;;;;;;;13.5;75.7;102480;;;;
2021/10/11 10:09:09;;;;;;;10.6;4.3;;;;;;;13.6;75.6;102470;;;;
2021/10/11 10:17:08;;;;;;;10.6;4.3;;;;;;;13.7;75.3;102470;;;;
2021/10/11 10:23:09;;;;;;;9.4;4.5;;;;;;;13.8;75.6;102470;;;;
2021/10/11 10:31:08;;;;;;;9.4;4.5;;;;;;;13.7;75.3;102480;;;;
2021/10/11 10:37:09;;;;;;;9.4;4.5;;;;;;;13.8;75.4;102470;;;;
2021/10/11 10:39:08;;;;;;;9.4;4.5;;;;;;;13.9;75.8;102470;;;;
2021/10/11 10:41:08;;;;;;;9.4;4.5;;;;;;;14.0;76.1;102460;;;;
2021/10/11 10:43:09;;;;;;;7.1;4.2;;;;;;;14.1;75.6;102460;;;;
2021/10/11 10:45:08;;;;;;;7.1;4.2;;;;;;;14.3;74.9;102470;;;;
2021/10/11 10:47:08;;;;;;;7.1;4.2;;;;;;;14.4;75.1;102460;;;;
2021/10/11 10:49:08;;;;;;;7.1;4.2;;;;;;;14.3;74.6;102470;;;;
2021/10/11 10:51:08;;;;;;;7.1;4.2;;;;;;;14.2;74.8;102470;;;;
2021/10/11 10:53:09;;;;;;;7.1;4.2;;;;;;;14.3;74.5;102460;;;;
2021/10/11 10:55:08;;;;;;;7.1;4.2;;;;;;;14.2;75.0;102470;;;;
2021/10/11 10:59:10;;;;;;;7.1;4.2;;;;;;;14.4;75.3;102470;;;;
2021/10/11 11:03:09;;;;;;;10.6;3.4;;;;;;;14.3;73.9;102480;;;;
2021/10/11 11:05:08;;;;;;;10.6;3.4;;;;;;;14.4;74.2;102470;;;;
2021/10/11 11:09:08;;;;;;;10.6;3.4;;;;;;;14.3;74.2;102470;;;;
2021/10/11 11:13:16;;;;;;;10.6;3.4;;;;;;;14.4;74.0;102470;;;;
2021/10/11 11:15:08;;;;;;;10.6;3.4;;;;;;;14.3;73.7;102470;;;;
2021/10/11 11:17:13;;;;;;;10.6;3.4;;;;;;;14.2;74.5;102470;;;;
2021/10/11 11:19:12;;;;;;;10.6;3.4;;;;;;;14.3;74.5;102460;;;;
2021/10/11 11:21:08;;;;;;;10.6;3.4;;;;;;;14.5;74.3;102460;;;;
2021/10/11 11:23:09;;;;;;;7.9;3.2;;;;;;;14.6;73.3;102460;;;;
2021/10/11 11:27:08;;;;;;;7.9;3.2;;;;;;;14.5;73.2;102450;;;;
2021/10/11 11:31:10;;;;;;;7.9;3.2;;;;;;;14.6;73.9;102450;;;;
2021/10/11 11:37:08;;;;;;;7.9;3.2;;;;;;;14.7;73.6;102450;;;;
2021/10/11 11:41:08;;;;;;;7.9;3.2;;;;;;;14.6;73.1;102450;;;;
2021/10/11 11:43:09;;;;;;;8.4;3.1;;;;;;;14.7;72.8;102450;;;;
2021/10/11 11:51:08;;;;;;;8.4;3.1;;;;;;;14.9;72.3;102440;;;;
2021/10/11 11:53:09;;;;;;;8.4;3.1;;;;;;;14.8;72.8;102440;;;;
2021/10/11 11:55:09;;;;;;;8.4;3.1;;;;;;;14.9;72.6;102450;;;;
2021/10/11 12:01:09;;;;;;;8.4;3.1;;;;;;;15.0;72.6;102440;;;;
2021/10/11 12:05:08;;;;;;;10.7;3.4;;;;;;;14.8;72.0;102440;;;;
2021/10/11 12:07:08;;;;;;;10.7;3.4;;;;;;;15.0;71.9;102430;;;;
2021/10/11 12:11:08;;;;;;;10.7;3.4;;;;;;;14.9;71.8;102430;;;;
2021/10/11 12:15:08;;;;;;;10.7;3.4;;;;;;;15.0;71.8;102430;;;;
2021/10/11 12:17:08;;;;;;;10.7;3.4;;;;;;;15.1;72.2;102430;;;;
2021/10/11 12:19:08;;;;;;;10.7;3.4;;;;;;;15.2;71.8;102420;;;;
2021/10/11 12:23:09;;;;;;;11.5;4.0;;;;;;;15.3;72.0;102420;;;;
2021/10/11 12:25:08;;;;;;;11.5;4.0;;;;;;;15.4;72.1;102420;;;;
2021/10/11 12:27:08;;;;;;;11.5;4.0;;;;;;;15.3;72.0;102420;;;;
2021/10/11 12:33:17;;;;;;;11.5;4.0;;;;;;;15.2;70.6;102420;;;;
2021/10/11 12:35:08;;;;;;;11.5;4.0;;;;;;;15.3;71.6;102420;;;;
2021/10/11 12:39:09;;;;;;;11.5;4.0;;;;;;;15.5;71.3;102420;;;;
2021/10/11 12:45:10;;;;;;;10.8;3.3;;;;;;;15.7;70.8;102410;;;;
2021/10/11 12:53:09;;;;;;;10.8;3.3;;;;;;;15.6;70.2;102400;;;;
2021/10/11 12:55:08;;;;;;;10.8;3.3;;;;;;;15.7;70.5;102400;;;;
2021/10/11 12:57:08;;;;;;;10.8;3.3;;;;;;;15.8;70.1;102400;;;;
2021/10/11 13:05:08;;;;;;;8.3;2.9;;;;;;;15.9;69.5;102380;;;;
2021/10/11 13:07:08;;;;;;;8.3;2.9;;;;;;;15.8;69.0;102380;;;;
2021/10/11 13:15:08;;;;;;;8.3;2.9;;;;;;;15.6;68.4;102380;;;;
2021/10/11 13:17:08;;;;;;;8.3;2.9;;;;;;;15.5;67.7;102380;;;;
2021/10/11 13:19:08;;;;;;;8.3;2.9;;;;;;;15.4;67.7;102380;;;;
2021/10/11 13:23:09;;;;;;;7.3;2.2;;;;;;;15.3;67.2;102380;;;;
2021/10/11 13:27:08;;;;;;;7.3;2.2;;;;;;;15.2;68.0;102380;;;;
2021/10/11 14:29:15;;;;;;;6.7;2.1;;;;;;;15.8;66.3;102360;;;;
2021/10/11 14:31:15;;;;;;;6.7;2.1;;;;;;;15.9;66.0;102360;;;;
2021/10/11 15:54:33;;;;;;;7.0;2.6;;;;;;;15.4;65.8;102340;;;;
2021/10/11 15:59:17;;;;;;;7.0;2.6;;;;;;;15.2;65.7;102350;;;;
2021/10/11 16:05:11;;;;;;;7.8;3.4;;;;;;;15.1;67.3;102340;;;;
2021/10/11 16:11:08;;;;;;;7.8;3.4;;;;;;;15.0;66.5;102350;;;;
2021/10/11 16:15:18;;;;;;;7.8;3.4;;;;;;;14.9;65.1;102350;;;;
2021/10/11 16:17:08;;;;;;;7.8;3.4;;;;;;;14.8;66.7;102350;;;;
2021/10/11 16:19:08;;;;;;;7.8;3.4;;;;;;;14.9;66.5;102350;;;;
2021/10/11 16:21:08;;;;;;;7.7;3.3;;;;;;;14.8;66.4;102350;;;;
2021/10/11 16:27:08;;;;;;;7.7;3.3;;;;;;;14.7;66.9;102350;;;;
2021/10/11 16:31:08;;;;;;;7.7;3.3;;;;;;;14.8;68.2;102350;;;;
2021/10/11 16:33:09;;;;;;;7.7;3.3;;;;;;;14.6;65.7;102350;;;;
2021/10/11 16:35:08;;;;;;;7.7;3.3;;;;;;;14.7;68.4;102350;;;;
2021/10/11 16:41:08;;;;;;;6.4;2.3;;;;;;;14.6;66.9;102350;;;;
2021/10/11 16:45:08;;;;;;;6.4;2.3;;;;;;;14.5;67.2;102340;;;;
2021/10/11 16:47:09;;;;;;;6.4;2.3;;;;;;;14.4;67.2;102340;;;;
2021/10/11 16:51:08;;;;;;;6.4;2.3;;;;;;;14.3;67.3;102350;;;;
2021/10/11 16:53:09;;;;;;;6.4;2.3;;;;;;;14.2;67.1;102350;;;;
2021/10/11 16:55:09;;;;;;;6.4;2.3;;;;;;;14.1;67.4;102360;;;;
2021/10/11 16:57:08;;;;;;;6.4;2.3;;;;;;;14.0;67.7;102370;;;;
2021/10/11 17:03:09;;;;;;;6.9;2.4;;;;;;;13.9;67.2;102370;;;;
2021/10/11 17:13:09;;;;;;;6.9;2.4;;;;;;;13.8;67.4;102380;;;;
2021/10/11 17:15:08;;;;;;;6.9;2.4;;;;;;;13.9;69.1;102370;;;;
2021/10/11 17:17:08;;;;;;;6.9;2.4;;;;;;;13.8;66.7;102370;;;;
2021/10/11 17:19:08;;;;;;;6.9;2.4;;;;;;;13.9;67.6;102370;;;;
2021/10/11 17:27:08;;;;;;;8.2;3.5;;;;;;;13.8;67.7;102370;;;;
2021/10/11 17:31:08;;;;;;;8.2;3.5;;;;;;;13.7;67.5;102370;;;;
2021/10/11 17:33:09;;;;;;;8.2;3.5;;;;;;;13.6;68.6;102370;;;;
2021/10/11 17:35:08;;;;;;;8.2;3.5;;;;;;;13.7;69.6;102370;;;;
2021/10/11 17:37:08;;;;;;;8.2;3.5;;;;;;;13.6;68.8;102370;;;;
2021/10/11 17:43:08;;;;;;;7.0;2.9;;;;;;;13.5;68.5;102370;;;;
2021/10/11 17:45:08;;;;;;;7.0;2.9;;;;;;;13.4;69.9;102370;;;;
2021/10/11 17:51:08;;;;;;;7.0;2.9;;;;;;;13.3;68.9;102380;;;;
2021/10/11 17:53:08;;;;;;;7.0;2.9;;;;;;;13.2;69.0;102370;;;;
2021/10/11 17:55:08;;;;;;;7.0;2.9;;;;;;;13.3;69.0;102370;;;;
2021/10/11 17:57:08;;;;;;;7.0;2.9;;;;;;;13.2;68.7;102370;;;;
2021/10/11 18:01:08;;;;;;;8.6;3.2;;;;;;;13.3;70.4;102370;;;;
2021/10/11 18:05:08;;;;;;;8.6;3.2;;;;;;;13.2;69.1;102380;;;;
2021/10/11 18:13:08;;;;;;;8.6;3.2;;;;;;;13.3;69.8;102380;;;;
2021/10/11 18:19:08;;;;;;;8.6;3.2;;;;;;;13.2;69.5;102360;;;;
2021/10/11 18:21:08;;;;;;;8.8;3.2;;;;;;;13.3;70.0;102360;;;;
2021/10/11 18:27:08;;;;;;;8.8;3.2;;;;;;;13.2;69.6;102370;;;;
2021/10/11 18:31:10;;;;;;;8.8;3.2;;;;;;;13.3;70.6;102370;;;;
2021/10/11 18:45:08;;;;;;;8.5;3.2;;;;;;;13.2;69.9;102360;;;;
2021/10/11 18:47:09;;;;;;;8.5;3.2;;;;;;;13.1;69.9;102360;;;;
2021/10/11 18:51:08;;;;;;;8.5;3.2;;;;;;;13.2;70.5;102360;;;;
2021/10/11 18:53:09;;;;;;;8.5;3.2;;;;;;;13.3;70.2;102370;;;;
2021/10/11 18:55:08;;;;;;;8.5;3.2;;;;;;;13.2;70.3;102370;;;;
2021/10/11 18:57:08;;;;;;;8.5;3.2;;;;;;;13.3;70.7;102370;;;;
2021/10/11 18:59:09;;;;;;;8.5;3.2;;;;;;;13.2;70.2;102370;;;;
2021/10/11 19:01:18;;;;;;;7.7;3.0;;;;;;;13.3;70.4;102370;;;;
2021/10/11 19:03:09;;;;;;;7.7;3.0;;;;;;;13.2;69.8;102370;;;;
2021/10/11 19:11:10;;;;;;;7.7;3.0;;;;;;;13.3;70.3;102370;;;;
2021/10/11 19:13:13;;;;;;;7.7;3.0;;;;;;;13.1;70.8;102370;;;;
2021/10/11 19:17:08;;;;;;;7.7;3.0;;;;;;;13.0;71.2;102360;;;;
2021/10/11 19:19:08;;;;;;;7.7;3.0;;;;;;;13.2;70.8;102360;;;;
2021/10/11 19:21:08;;;;;;;7.8;4.1;;;;;;;13.1;70.4;102360;;;;
2021/10/11 19:23:08;;;;;;;7.8;4.1;;;;;;;12.9;70.9;102350;;;;
2021/10/11 19:27:08;;;;;;;7.8;4.1;;;;;;;13.0;70.8;102350;;;;
2021/10/11 19:33:08;;;;;;;7.8;4.1;;;;;;;13.1;69.8;102340;;;;
2021/10/11 19:37:08;;;;;;;7.8;4.1;;;;;;;13.2;69.8;102340;;;;
2021/10/11 19:51:08;;;;;;;6.4;2.8;;;;;;;13.1;69.6;102340;;;;
2021/10/11 19:53:08;;;;;;;6.4;2.8;;;;;;;12.9;69.6;102340;;;;
2021/10/11 19:55:08;;;;;;;6.4;2.8;;;;;;;13.0;69.8;102350;;;;
2021/10/11 19:59:08;;;;;;;6.4;2.8;;;;;;;12.9;70.0;102350;;;;
2021/10/11 20:01:09;;;;;;;5.3;2.6;;;;;;;13.0;69.5;102360;;;;
2021/10/11 20:03:08;;;;;;;5.3;2.6;;;;;;;12.9;70.2;102360;;;;
2021/10/11 20:07:08;;;;;;;5.3;2.6;;;;;;;13.0;70.2;102360;;;;
2021/10/11 20:15:09;;;;;;;5.3;2.6;;;;;;;12.9;70.3;102350;;;;
2021/10/11 20:19:08;;;;;;;5.3;2.6;;;;;;;13.0;70.1;102350;;;;
2021/10/11 20:25:08;;;;;;;5.9;3.2;;;;;;;12.9;70.2;102350;;;;
2021/10/11 20:27:08;;;;;;;5.9;3.2;;;;;;;12.8;70.2;102350;;;;
2021/10/11 20:35:08;;;;;;;5.9;3.2;;;;;;;12.9;70.4;102350;;;;
2021/10/11 20:43:08;;;;;;;8.9;4.2;;;;;;;12.8;70.6;102340;;;;
2021/10/11 20:47:08;;;;;;;8.9;4.2;;;;;;;12.7;71.3;102340;;;;
2021/10/11 20:49:08;;;;;;;8.9;4.2;;;;;;;12.8;70.8;102340;;;;
2021/10/11 20:51:08;;;;;;;8.9;4.2;;;;;;;12.9;70.4;102340;;;;
2021/10/11 20:53:09;;;;;;;8.9;4.2;;;;;;;12.8;70.9;102330;;;;
2021/10/11 20:55:08;;;;;;;8.9;4.2;;;;;;;12.9;70.5;102330;;;;
2021/10/11 20:57:08;;;;;;;8.9;4.2;;;;;;;12.8;70.6;102330;;;;
2021/10/11 21:03:08;;;;;;;11.1;6.1;;;;;;;12.7;70.6;102330;;;;
2021/10/11 21:05:08;;;;;;;11.1;6.1;;;;;;;12.6;71.0;102330;;;;
2021/10/11 21:07:08;;;;;;;11.1;6.1;;;;;;;12.5;71.2;102340;;;;
2021/10/11 21:09:08;;;;;;;11.1;6.1;;;;;;;12.6;71.5;102340;;;;
2021/10/11 21:13:08;;;;;;;11.1;6.1;;;;;;;12.5;71.4;102330;;;;
2021/10/11 21:15:08;;;;;;;11.1;6.1;;;;;;;12.6;71.5;102330;;;;
2021/10/11 21:19:08;;;;;;;11.1;6.1;;;;;;;12.7;71.3;102340;;;;
2021/10/11 21:23:08;;;;;;;8.3;4.0;;;;;;;12.6;71.3;102340;;;;
2021/10/11 21:25:08;;;;;;;8.3;4.0;;;;;;;12.7;71.5;102340;;;;
2021/10/11 21:27:10;;;;;;;8.3;4.0;;;;;;;12.5;71.8;102340;;;;
2021/10/11 21:29:08;;;;;;;8.3;4.0;;;;;;;12.6;71.9;102330;;;;
2021/10/11 21:35:08;;;;;;;8.3;4.0;;;;;;;12.5;71.8;102330;;;;
2021/10/11 21:43:12;;;;;;;9.6;4.5;;;;;;;12.6;71.5;102330;;;;
2021/10/11 21:45:08;;;;;;;9.6;4.5;;;;;;;12.5;72.0;102330;;;;
2021/10/11 21:49:08;;;;;;;9.6;4.5;;;;;;;12.6;71.3;102320;;;;
2021/10/11 21:51:08;;;;;;;9.6;4.5;;;;;;;12.5;71.5;102320;;;;
2021/10/11 22:03:09;;;;;;;7.3;4.2;;;;;;;12.4;72.3;102320;;;;
2021/10/11 22:05:11;;;;;;;7.3;4.2;;;;;;;12.3;72.6;102320;;;;
2021/10/11 22:07:08;;;;;;;7.3;4.2;;;;;;;12.4;72.5;102320;;;;
2021/10/11 22:17:08;;;;;;;7.3;4.2;;;;;;;12.3;72.7;102310;;;;
2021/10/11 22:25:08;;;;;;;9.0;4.1;;;;;;;12.4;72.8;102310;;;;
2021/10/11 22:27:08;;;;;;;9.0;4.1;;;;;;;12.3;72.6;102310;;;;
2021/10/11 22:35:08;;;;;;;9.0;4.1;;;;;;;12.2;74.0;102300;;;;
2021/10/11 22:39:08;;;;;;;9.0;4.1;;;;;;;12.1;74.4;102300;;;;
2021/10/11 22:41:08;;;;;;;9.3;4.0;;;;;;;12.2;74.4;102300;;;;
2021/10/11 22:43:09;;;;;;;9.3;4.0;;;;;;;12.3;74.0;102300;;;;
2021/10/11 22:47:08;;;;;;;9.3;4.0;;;;;;;12.4;73.6;102290;;;;
2021/10/11 22:51:08;;;;;;;9.3;4.0;;;;;;;12.3;73.9;102280;;;;
2021/10/11 22:53:09;;;;;;;9.3;4.0;;;;;;;12.4;73.7;102270;;;;
2021/10/11 22:57:08;;;;;;;9.3;4.0;;;;;;;12.3;74.0;102270;;;;
2021/10/11 23:09:08;;;;;;;7.8;3.7;;;;;;;12.4;73.6;102260;;;;
2021/10/11 23:11:08;;;;;;;7.8;3.7;;;;;;;12.2;74.5;102260;;;;
2021/10/11 23:13:10;;;;;;;7.8;3.7;;;;;;;12.3;74.0;102260;;;;
2021/10/11 23:17:08;;;;;;;7.8;3.7;;;;;;;12.4;73.4;102250;;;;
2021/10/11 23:19:08;;;;;;;7.8;3.7;;;;;;;12.3;73.9;102250;;;;
2021/10/11 23:35:08;;;;;;;8.2;3.8;;;;;;;12.4;73.1;102230;;;;
2021/10/11 23:37:08;;;;;;;8.2;3.8;;;;;;;12.3;73.7;102230;;;;
2021/10/11 23:41:08;;;;;;;8.7;3.9;;;;;;;12.4;73.5;102220;;;;
2021/10/11 23:43:09;;;;;;;8.7;3.9;;;;;;;12.3;73.9;102220;;;;
2021/10/11 23:47:08;;;;;;;8.7;3.9;;;;;;;12.2;74.2;102210;;;;
2021/10/11 23:49:08;;;;;;;8.7;3.9;;;;;;;12.1;74.4;102210;;;;
2021/10/11 23:51:08;;;;;;;8.7;3.9;;;;;;;12.3;73.9;102220;;;;
2021/10/11 23:55:08;;;;;;;8.7;3.9;;;;;;;12.2;73.5;102220;;;;
2021/10/11 23:57:08;;;;;;;8.7;3.9;;;;;;;12.3;73.4;102220;;;;
2021/10/11 23:59:08;;;;;;;8.7;3.9;;;;;;;12.2;73.4;102210;;;;
